sensor_id;sensor_type;location;lat;lon;timestamp;temperature;humidity
59469;DHT22;45277;52.768;18.262;2023-03-25T00:00:18;7.20;99.90
59469;DHT22;45277;52.768;18.262;2023-03-25T00:02:11;7.20;99.90
59469;DHT22;45277;52.768;18.262;2023-03-25T00:03:43;7.30;99.90
59469;DHT22;45277;52.768;18.262;2023-03-25T00:05:21;7.30;99.90
59469;DHT22;45277;52.768;18.262;2023-03-25T00:06:56;7.30;99.90
59469;DHT22;45277;52.768;18.262;2023-03-25T00:08:27;7.30;99.90
59469;DHT22;45277;52.768;18.262;2023-03-25T00:09:58;7.30;99.90
59469;DHT22;45277;52.768;18.262;2023-03-25T00:11:30;7.40;99.90
59469;DHT22;45277;52.768;18.262;2023-03-25T00:13:02;7.40;99.90
59469;DHT22;45277;52.768;18.262;2023-03-25T00:14:35;7.40;99.90
59469;DHT22;45277;52.768;18.262;2023-03-25T00:16:07;7.30;99.90
59469;DHT22;45277;52.768;18.262;2023-03-25T00:17:40;7.30;99.90
59469;DHT22;45277;52.768;18.262;2023-03-25T00:19:12;7.20;99.90
59469;DHT22;45277;52.768;18.262;2023-03-25T00:20:44;7.30;99.90
59469;DHT22;45277;52.768;18.262;2023-03-25T00:22:17;7.30;99.90
59469;DHT22;45277;52.768;18.262;2023-03-25T00:23:48;7.40;99.90
59469;DHT22;45277;52.768;18.262;2023-03-25T00:25:20;7.50;99.90
59469;DHT22;45277;52.768;18.262;2023-03-25T00:26:52;7.60;99.90
59469;DHT22;45277;52.768;18.262;2023-03-25T00:28:24;7.60;99.90
59469;DHT22;45277;52.768;18.262;2023-03-25T00:29:56;7.60;99.90
59469;DHT22;45277;52.768;18.262;2023-03-25T00:31:27;7.60;99.90
59469;DHT22;45277;52.768;18.262;2023-03-25T00:32:59;7.70;99.90
59469;DHT22;45277;52.768;18.262;2023-03-25T00:34:31;7.60;99.90
59469;DHT22;45277;52.768;18.262;2023-03-25T00:36:05;7.70;99.90
59469;DHT22;45277;52.768;18.262;2023-03-25T00:37:36;7.70;99.90
59469;DHT22;45277;52.768;18.262;2023-03-25T00:39:08;7.70;99.90
59469;DHT22;45277;52.768;18.262;2023-03-25T00:40:40;7.70;99.90
59469;DHT22;45277;52.768;18.262;2023-03-25T00:42:17;7.70;99.90
59469;DHT22;45277;52.768;18.262;2023-03-25T00:43:58;7.70;99.90
59469;DHT22;45277;52.768;18.262;2023-03-25T00:45:30;7.80;99.90
59469;DHT22;45277;52.768;18.262;2023-03-25T00:47:01;7.80;99.90
59469;DHT22;45277;52.768;18.262;2023-03-25T00:48:33;7.80;99.90
59469;DHT22;45277;52.768;18.262;2023-03-25T00:50:05;7.90;99.90
59469;DHT22;45277;52.768;18.262;2023-03-25T00:51:36;7.90;99.90
59469;DHT22;45277;52.768;18.262;2023-03-25T00:53:08;8.00;99.90
59469;DHT22;45277;52.768;18.262;2023-03-25T00:54:39;8.00;99.90
59469;DHT22;45277;52.768;18.262;2023-03-25T00:56:11;8.00;99.90
59469;DHT22;45277;52.768;18.262;2023-03-25T00:57:43;8.00;99.90
59469;DHT22;45277;52.768;18.262;2023-03-25T00:59:14;7.90;99.90
59469;DHT22;45277;52.768;18.262;2023-03-25T01:00:46;7.90;99.90
59469;DHT22;45277;52.768;18.262;2023-03-25T01:02:18;7.90;99.90
59469;DHT22;45277;52.768;18.262;2023-03-25T01:03:52;7.90;99.90
59469;DHT22;45277;52.768;18.262;2023-03-25T01:05:27;7.90;99.90
59469;DHT22;45277;52.768;18.262;2023-03-25T01:06:59;7.90;99.90
59469;DHT22;45277;52.768;18.262;2023-03-25T01:08:31;7.80;99.90
59469;DHT22;45277;52.768;18.262;2023-03-25T01:10:04;7.80;99.90
59469;DHT22;45277;52.768;18.262;2023-03-25T01:11:36;7.70;99.90
59469;DHT22;45277;52.768;18.262;2023-03-25T01:13:08;7.70;99.90
59469;DHT22;45277;52.768;18.262;2023-03-25T01:14:40;7.70;99.90
59469;DHT22;45277;52.768;18.262;2023-03-25T01:16:12;7.70;99.90
59469;DHT22;45277;52.768;18.262;2023-03-25T01:17:44;7.60;99.90
59469;DHT22;45277;52.768;18.262;2023-03-25T01:19:15;7.60;99.90
59469;DHT22;45277;52.768;18.262;2023-03-25T01:20:47;7.60;99.90
59469;DHT22;45277;52.768;18.262;2023-03-25T01:22:18;7.60;99.90
59469;DHT22;45277;52.768;18.262;2023-03-25T01:23:49;7.60;99.90
59469;DHT22;45277;52.768;18.262;2023-03-25T01:25:21;7.60;99.90
59469;DHT22;45277;52.768;18.262;2023-03-25T01:26:52;7.60;99.90
59469;DHT22;45277;52.768;18.262;2023-03-25T01:28:23;7.60;99.90
59469;DHT22;45277;52.768;18.262;2023-03-25T01:29:55;7.50;99.90
59469;DHT22;45277;52.768;18.262;2023-03-25T01:31:27;7.40;99.90
59469;DHT22;45277;52.768;18.262;2023-03-25T01:33:00;7.50;99.90
59469;DHT22;45277;52.768;18.262;2023-03-25T01:34:32;7.50;99.90
59469;DHT22;45277;52.768;18.262;2023-03-25T01:36:04;7.50;99.90
59469;DHT22;45277;52.768;18.262;2023-03-25T01:37:39;7.40;99.90
59469;DHT22;45277;52.768;18.262;2023-03-25T01:39:16;7.40;99.90
59469;DHT22;45277;52.768;18.262;2023-03-25T01:40:50;7.40;99.90
59469;DHT22;45277;52.768;18.262;2023-03-25T01:42:22;7.40;99.90
59469;DHT22;45277;52.768;18.262;2023-03-25T01:45:37;7.40;99.90
59469;DHT22;45277;52.768;18.262;2023-03-25T01:47:08;7.50;99.90
59469;DHT22;45277;52.768;18.262;2023-03-25T01:48:41;7.50;99.90
59469;DHT22;45277;52.768;18.262;2023-03-25T01:50:15;7.50;99.90
59469;DHT22;45277;52.768;18.262;2023-03-25T01:52:23;7.50;99.90
59469;DHT22;45277;52.768;18.262;2023-03-25T01:53:47;7.60;99.90
59469;DHT22;45277;52.768;18.262;2023-03-25T01:55:19;7.50;99.90
59469;DHT22;45277;52.768;18.262;2023-03-25T01:56:51;7.60;99.90
59469;DHT22;45277;52.768;18.262;2023-03-25T01:58:24;7.60;99.90
59469;DHT22;45277;52.768;18.262;2023-03-25T01:59:59;7.50;99.90
59469;DHT22;45277;52.768;18.262;2023-03-25T02:01:31;7.50;99.90
59469;DHT22;45277;52.768;18.262;2023-03-25T02:03:02;7.50;99.90
59469;DHT22;45277;52.768;18.262;2023-03-25T02:04:58;7.50;99.90
59469;DHT22;45277;52.768;18.262;2023-03-25T02:06:42;7.50;99.90
59469;DHT22;45277;52.768;18.262;2023-03-25T02:08:13;7.50;99.90
59469;DHT22;45277;52.768;18.262;2023-03-25T02:09:46;7.50;99.90
59469;DHT22;45277;52.768;18.262;2023-03-25T02:11:17;7.60;99.90
59469;DHT22;45277;52.768;18.262;2023-03-25T02:12:48;7.60;99.90
59469;DHT22;45277;52.768;18.262;2023-03-25T02:14:23;7.60;99.90
59469;DHT22;45277;52.768;18.262;2023-03-25T02:18:14;7.60;99.90
59469;DHT22;45277;52.768;18.262;2023-03-25T02:40:30;7.30;99.90
59469;DHT22;45277;52.768;18.262;2023-03-25T02:44:11;7.30;99.90
59469;DHT22;45277;52.768;18.262;2023-03-25T02:45:50;7.30;99.90
59469;DHT22;45277;52.768;18.262;2023-03-25T02:47:25;7.40;99.90
59469;DHT22;45277;52.768;18.262;2023-03-25T02:49:35;7.30;99.90
59469;DHT22;45277;52.768;18.262;2023-03-25T02:51:19;7.30;99.90
59469;DHT22;45277;52.768;18.262;2023-03-25T02:52:58;7.30;99.90
59469;DHT22;45277;52.768;18.262;2023-03-25T02:54:32;7.20;99.90
59469;DHT22;45277;52.768;18.262;2023-03-25T02:56:06;7.20;99.90
59469;DHT22;45277;52.768;18.262;2023-03-25T02:57:45;7.20;99.90
59469;DHT22;45277;52.768;18.262;2023-03-25T02:59:18;7.10;99.90
59469;DHT22;45277;52.768;18.262;2023-03-25T03:00:52;7.10;99.90
59469;DHT22;45277;52.768;18.262;2023-03-25T03:02:29;7.20;99.90
59469;DHT22;45277;52.768;18.262;2023-03-25T03:04:02;7.30;99.90
59469;DHT22;45277;52.768;18.262;2023-03-25T03:05:37;7.30;99.90
59469;DHT22;45277;52.768;18.262;2023-03-25T03:07:29;7.20;99.90
59469;DHT22;45277;52.768;18.262;2023-03-25T03:11:09;7.20;99.90
59469;DHT22;45277;52.768;18.262;2023-03-25T03:18:13;7.00;99.90
59469;DHT22;45277;52.768;18.262;2023-03-25T03:21:38;6.80;99.90
59469;DHT22;45277;52.768;18.262;2023-03-25T03:23:17;6.80;99.90
59469;DHT22;45277;52.768;18.262;2023-03-25T03:25:20;6.70;99.90
59469;DHT22;45277;52.768;18.262;2023-03-25T03:27:10;6.70;99.90
59469;DHT22;45277;52.768;18.262;2023-03-25T03:28:59;6.70;99.90
59469;DHT22;45277;52.768;18.262;2023-03-25T03:31:05;6.70;99.90
59469;DHT22;45277;52.768;18.262;2023-03-25T03:32:45;6.70;99.90
59469;DHT22;45277;52.768;18.262;2023-03-25T03:34:42;6.70;99.90
59469;DHT22;45277;52.768;18.262;2023-03-25T03:36:20;6.80;99.90
59469;DHT22;45277;52.768;18.262;2023-03-25T03:38:01;6.80;99.90
59469;DHT22;45277;52.768;18.262;2023-03-25T03:39:37;6.80;99.90
59469;DHT22;45277;52.768;18.262;2023-03-25T03:41:10;6.80;99.90
59469;DHT22;45277;52.768;18.262;2023-03-25T03:42:57;6.70;99.90
59469;DHT22;45277;52.768;18.262;2023-03-25T03:44:33;6.70;99.90
59469;DHT22;45277;52.768;18.262;2023-03-25T03:46:09;6.80;99.90
59469;DHT22;45277;52.768;18.262;2023-03-25T03:47:48;6.80;99.90
59469;DHT22;45277;52.768;18.262;2023-03-25T03:49:26;6.80;99.90
59469;DHT22;45277;52.768;18.262;2023-03-25T03:51:05;6.70;99.90
59469;DHT22;45277;52.768;18.262;2023-03-25T03:53:11;6.60;99.90
59469;DHT22;45277;52.768;18.262;2023-03-25T03:54:53;6.80;99.90
59469;DHT22;45277;52.768;18.262;2023-03-25T03:58:50;6.80;99.90
59469;DHT22;45277;52.768;18.262;2023-03-25T04:00:30;6.90;99.90
59469;DHT22;45277;52.768;18.262;2023-03-25T04:02:13;6.90;99.90
59469;DHT22;45277;52.768;18.262;2023-03-25T04:03:57;6.90;99.90
59469;DHT22;45277;52.768;18.262;2023-03-25T04:05:31;6.90;99.90
59469;DHT22;45277;52.768;18.262;2023-03-25T04:07:17;6.90;99.90
59469;DHT22;45277;52.768;18.262;2023-03-25T04:08:58;6.90;99.90
59469;DHT22;45277;52.768;18.262;2023-03-25T04:10:40;6.90;99.90
59469;DHT22;45277;52.768;18.262;2023-03-25T04:12:21;6.90;99.90
59469;DHT22;45277;52.768;18.262;2023-03-25T04:13:55;6.90;99.90
59469;DHT22;45277;52.768;18.262;2023-03-25T04:15:29;6.90;99.90
59469;DHT22;45277;52.768;18.262;2023-03-25T04:17:00;7.00;99.90
59469;DHT22;45277;52.768;18.262;2023-03-25T04:18:31;6.90;99.90
59469;DHT22;45277;52.768;18.262;2023-03-25T04:20:04;6.90;99.90
59469;DHT22;45277;52.768;18.262;2023-03-25T04:21:41;6.90;99.90
59469;DHT22;45277;52.768;18.262;2023-03-25T04:23:12;6.80;99.90
59469;DHT22;45277;52.768;18.262;2023-03-25T04:24:47;6.80;99.90
59469;DHT22;45277;52.768;18.262;2023-03-25T04:26:21;6.80;99.90
59469;DHT22;45277;52.768;18.262;2023-03-25T04:27:53;6.70;99.90
59469;DHT22;45277;52.768;18.262;2023-03-25T04:29:29;6.70;99.90
59469;DHT22;45277;52.768;18.262;2023-03-25T04:31:01;6.70;99.90
59469;DHT22;45277;52.768;18.262;2023-03-25T04:32:37;6.70;99.90
59469;DHT22;45277;52.768;18.262;2023-03-25T04:34:08;6.70;99.90
59469;DHT22;45277;52.768;18.262;2023-03-25T04:35:40;6.70;99.90
59469;DHT22;45277;52.768;18.262;2023-03-25T04:37:11;6.70;99.90
59469;DHT22;45277;52.768;18.262;2023-03-25T04:38:43;6.70;99.90
59469;DHT22;45277;52.768;18.262;2023-03-25T04:40:17;6.70;99.90
59469;DHT22;45277;52.768;18.262;2023-03-25T04:41:49;6.70;99.90
59469;DHT22;45277;52.768;18.262;2023-03-25T04:43:21;6.70;99.90
59469;DHT22;45277;52.768;18.262;2023-03-25T04:44:52;6.80;99.90
59469;DHT22;45277;52.768;18.262;2023-03-25T04:46:24;6.80;99.90
59469;DHT22;45277;52.768;18.262;2023-03-25T04:47:56;6.80;99.90
59469;DHT22;45277;52.768;18.262;2023-03-25T04:49:27;6.90;99.90
59469;DHT22;45277;52.768;18.262;2023-03-25T04:50:59;6.90;99.90
59469;DHT22;45277;52.768;18.262;2023-03-25T04:52:32;6.90;99.90
59469;DHT22;45277;52.768;18.262;2023-03-25T04:54:04;7.00;99.90
59469;DHT22;45277;52.768;18.262;2023-03-25T04:55:37;7.00;99.90
59469;DHT22;45277;52.768;18.262;2023-03-25T04:57:18;7.00;99.90
59469;DHT22;45277;52.768;18.262;2023-03-25T04:58:50;7.00;99.90
59469;DHT22;45277;52.768;18.262;2023-03-25T05:00:24;7.10;99.90
59469;DHT22;45277;52.768;18.262;2023-03-25T05:01:56;7.10;99.90
59469;DHT22;45277;52.768;18.262;2023-03-25T05:03:27;7.10;99.90
59469;DHT22;45277;52.768;18.262;2023-03-25T05:05:00;7.10;99.90
59469;DHT22;45277;52.768;18.262;2023-03-25T05:06:34;7.10;99.90
59469;DHT22;45277;52.768;18.262;2023-03-25T05:08:05;7.10;99.90
59469;DHT22;45277;52.768;18.262;2023-03-25T05:09:37;7.10;99.90
59469;DHT22;45277;52.768;18.262;2023-03-25T05:11:09;7.00;99.90
59469;DHT22;45277;52.768;18.262;2023-03-25T05:12:41;7.10;99.90
59469;DHT22;45277;52.768;18.262;2023-03-25T05:14:14;7.00;99.90
59469;DHT22;45277;52.768;18.262;2023-03-25T05:15:46;7.00;99.90
59469;DHT22;45277;52.768;18.262;2023-03-25T05:17:18;7.00;99.90
59469;DHT22;45277;52.768;18.262;2023-03-25T05:18:49;7.00;99.90
59469;DHT22;45277;52.768;18.262;2023-03-25T05:20:21;7.00;99.90
59469;DHT22;45277;52.768;18.262;2023-03-25T05:21:52;7.00;99.90
59469;DHT22;45277;52.768;18.262;2023-03-25T05:23:26;7.00;99.90
59469;DHT22;45277;52.768;18.262;2023-03-25T05:24:57;7.00;99.90
59469;DHT22;45277;52.768;18.262;2023-03-25T05:26:29;7.00;99.90
59469;DHT22;45277;52.768;18.262;2023-03-25T05:28:04;7.00;99.90
59469;DHT22;45277;52.768;18.262;2023-03-25T05:29:36;7.00;99.90
59469;DHT22;45277;52.768;18.262;2023-03-25T05:31:07;7.00;99.90
59469;DHT22;45277;52.768;18.262;2023-03-25T05:32:39;7.00;99.90
59469;DHT22;45277;52.768;18.262;2023-03-25T05:34:12;7.00;99.90
59469;DHT22;45277;52.768;18.262;2023-03-25T05:35:44;7.00;99.90
59469;DHT22;45277;52.768;18.262;2023-03-25T05:37:16;7.00;99.90
59469;DHT22;45277;52.768;18.262;2023-03-25T05:38:48;7.10;99.90
59469;DHT22;45277;52.768;18.262;2023-03-25T05:40:19;7.00;99.90
59469;DHT22;45277;52.768;18.262;2023-03-25T05:41:51;7.10;99.90
59469;DHT22;45277;52.768;18.262;2023-03-25T05:43:25;7.10;99.90
59469;DHT22;45277;52.768;18.262;2023-03-25T05:44:59;7.10;99.90
59469;DHT22;45277;52.768;18.262;2023-03-25T05:46:31;7.10;99.90
59469;DHT22;45277;52.768;18.262;2023-03-25T05:48:03;7.20;99.90
59469;DHT22;45277;52.768;18.262;2023-03-25T05:49:34;7.20;99.90
59469;DHT22;45277;52.768;18.262;2023-03-25T05:51:11;7.30;99.90
59469;DHT22;45277;52.768;18.262;2023-03-25T05:52:44;7.30;99.90
59469;DHT22;45277;52.768;18.262;2023-03-25T05:54:15;7.30;99.90
59469;DHT22;45277;52.768;18.262;2023-03-25T05:55:46;7.40;99.90
59469;DHT22;45277;52.768;18.262;2023-03-25T05:57:21;7.40;99.90
59469;DHT22;45277;52.768;18.262;2023-03-25T05:58:52;7.50;99.90
59469;DHT22;45277;52.768;18.262;2023-03-25T06:00:24;7.50;99.90
59469;DHT22;45277;52.768;18.262;2023-03-25T06:01:56;7.60;99.90
59469;DHT22;45277;52.768;18.262;2023-03-25T06:03:27;7.60;99.90
59469;DHT22;45277;52.768;18.262;2023-03-25T06:04:58;7.70;99.90
59469;DHT22;45277;52.768;18.262;2023-03-25T06:06:31;7.70;99.90
59469;DHT22;45277;52.768;18.262;2023-03-25T06:08:03;7.70;99.90
59469;DHT22;45277;52.768;18.262;2023-03-25T06:09:35;7.70;99.90
59469;DHT22;45277;52.768;18.262;2023-03-25T06:11:08;7.80;99.90
59469;DHT22;45277;52.768;18.262;2023-03-25T06:12:45;7.70;99.90
59469;DHT22;45277;52.768;18.262;2023-03-25T06:14:16;7.80;99.90
59469;DHT22;45277;52.768;18.262;2023-03-25T06:15:48;7.80;99.90
59469;DHT22;45277;52.768;18.262;2023-03-25T06:17:25;7.90;99.90
59469;DHT22;45277;52.768;18.262;2023-03-25T06:18:57;7.90;99.90
59469;DHT22;45277;52.768;18.262;2023-03-25T06:20:32;8.00;99.90
59469;DHT22;45277;52.768;18.262;2023-03-25T06:22:08;8.00;99.90
59469;DHT22;45277;52.768;18.262;2023-03-25T06:23:40;8.00;99.90
59469;DHT22;45277;52.768;18.262;2023-03-25T06:25:14;8.00;99.90
59469;DHT22;45277;52.768;18.262;2023-03-25T06:26:47;8.00;99.90
59469;DHT22;45277;52.768;18.262;2023-03-25T06:28:19;8.10;99.90
59469;DHT22;45277;52.768;18.262;2023-03-25T06:29:51;8.20;99.90
59469;DHT22;45277;52.768;18.262;2023-03-25T06:31:24;8.30;99.90
59469;DHT22;45277;52.768;18.262;2023-03-25T06:33:03;8.30;99.90
59469;DHT22;45277;52.768;18.262;2023-03-25T06:34:36;8.30;99.90
59469;DHT22;45277;52.768;18.262;2023-03-25T06:36:10;8.40;99.90
59469;DHT22;45277;52.768;18.262;2023-03-25T06:37:42;8.40;99.90
59469;DHT22;45277;52.768;18.262;2023-03-25T06:39:13;8.40;99.90
59469;DHT22;45277;52.768;18.262;2023-03-25T06:40:45;8.50;99.90
59469;DHT22;45277;52.768;18.262;2023-03-25T06:42:17;8.60;99.90
59469;DHT22;45277;52.768;18.262;2023-03-25T06:43:49;8.60;99.90
59469;DHT22;45277;52.768;18.262;2023-03-25T06:45:21;8.70;99.90
59469;DHT22;45277;52.768;18.262;2023-03-25T06:46:53;8.80;99.90
59469;DHT22;45277;52.768;18.262;2023-03-25T06:48:25;8.90;99.90
59469;DHT22;45277;52.768;18.262;2023-03-25T06:49:56;8.90;99.90
59469;DHT22;45277;52.768;18.262;2023-03-25T06:51:28;9.00;99.90
59469;DHT22;45277;52.768;18.262;2023-03-25T06:53:00;8.90;99.90
59469;DHT22;45277;52.768;18.262;2023-03-25T06:54:33;9.00;99.90
59469;DHT22;45277;52.768;18.262;2023-03-25T06:56:05;9.00;99.90
59469;DHT22;45277;52.768;18.262;2023-03-25T06:57:37;9.00;99.90
59469;DHT22;45277;52.768;18.262;2023-03-25T06:59:08;9.20;99.90
59469;DHT22;45277;52.768;18.262;2023-03-25T07:00:39;9.20;99.90
59469;DHT22;45277;52.768;18.262;2023-03-25T07:02:12;9.30;99.90
59469;DHT22;45277;52.768;18.262;2023-03-25T07:03:43;9.40;99.90
59469;DHT22;45277;52.768;18.262;2023-03-25T07:05:15;9.40;99.90
59469;DHT22;45277;52.768;18.262;2023-03-25T07:06:47;9.50;99.90
59469;DHT22;45277;52.768;18.262;2023-03-25T07:08:18;9.50;99.90
59469;DHT22;45277;52.768;18.262;2023-03-25T07:09:53;9.60;99.90
59469;DHT22;45277;52.768;18.262;2023-03-25T07:11:28;9.60;99.90
59469;DHT22;45277;52.768;18.262;2023-03-25T07:13:00;9.70;99.90
59469;DHT22;45277;52.768;18.262;2023-03-25T07:14:31;9.70;99.90
59469;DHT22;45277;52.768;18.262;2023-03-25T07:16:03;9.70;99.90
59469;DHT22;45277;52.768;18.262;2023-03-25T07:17:35;9.70;99.90
59469;DHT22;45277;52.768;18.262;2023-03-25T07:19:06;9.80;99.90
59469;DHT22;45277;52.768;18.262;2023-03-25T07:20:38;9.90;99.90
59469;DHT22;45277;52.768;18.262;2023-03-25T07:22:09;9.90;99.90
59469;DHT22;45277;52.768;18.262;2023-03-25T07:23:40;10.00;99.90
59469;DHT22;45277;52.768;18.262;2023-03-25T07:25:12;10.00;99.90
59469;DHT22;45277;52.768;18.262;2023-03-25T07:26:43;10.10;99.90
59469;DHT22;45277;52.768;18.262;2023-03-25T07:28:15;10.10;99.90
59469;DHT22;45277;52.768;18.262;2023-03-25T07:29:47;10.20;99.90
59469;DHT22;45277;52.768;18.262;2023-03-25T07:31:18;10.20;99.90
59469;DHT22;45277;52.768;18.262;2023-03-25T07:32:49;10.30;99.90
59469;DHT22;45277;52.768;18.262;2023-03-25T07:34:21;10.30;99.90
59469;DHT22;45277;52.768;18.262;2023-03-25T07:35:53;10.30;99.90
59469;DHT22;45277;52.768;18.262;2023-03-25T07:37:24;10.30;99.90
59469;DHT22;45277;52.768;18.262;2023-03-25T07:38:56;10.40;99.90
59469;DHT22;45277;52.768;18.262;2023-03-25T07:40:27;10.40;99.90
59469;DHT22;45277;52.768;18.262;2023-03-25T07:41:59;10.50;99.90
59469;DHT22;45277;52.768;18.262;2023-03-25T07:43:31;10.60;99.90
59469;DHT22;45277;52.768;18.262;2023-03-25T07:45:04;10.70;99.90
59469;DHT22;45277;52.768;18.262;2023-03-25T07:46:35;10.70;99.90
59469;DHT22;45277;52.768;18.262;2023-03-25T07:48:07;10.70;99.90
59469;DHT22;45277;52.768;18.262;2023-03-25T07:49:44;10.70;99.90
59469;DHT22;45277;52.768;18.262;2023-03-25T07:51:16;10.80;99.90
59469;DHT22;45277;52.768;18.262;2023-03-25T07:52:48;10.90;99.90
59469;DHT22;45277;52.768;18.262;2023-03-25T07:54:20;10.90;99.90
59469;DHT22;45277;52.768;18.262;2023-03-25T07:55:52;10.90;99.90
59469;DHT22;45277;52.768;18.262;2023-03-25T07:57:24;10.90;99.90
59469;DHT22;45277;52.768;18.262;2023-03-25T07:58:55;10.90;99.90
59469;DHT22;45277;52.768;18.262;2023-03-25T08:00:30;10.80;99.90
59469;DHT22;45277;52.768;18.262;2023-03-25T08:02:01;10.90;99.90
59469;DHT22;45277;52.768;18.262;2023-03-25T08:03:33;10.80;99.90
59469;DHT22;45277;52.768;18.262;2023-03-25T08:05:05;10.70;99.90
59469;DHT22;45277;52.768;18.262;2023-03-25T08:06:37;10.70;99.90
59469;DHT22;45277;52.768;18.262;2023-03-25T08:08:08;10.70;99.90
59469;DHT22;45277;52.768;18.262;2023-03-25T08:09:40;10.70;99.90
59469;DHT22;45277;52.768;18.262;2023-03-25T08:11:12;10.80;99.90
59469;DHT22;45277;52.768;18.262;2023-03-25T08:12:44;10.80;99.90
59469;DHT22;45277;52.768;18.262;2023-03-25T08:14:16;10.80;99.90
59469;DHT22;45277;52.768;18.262;2023-03-25T08:15:47;10.80;99.90
59469;DHT22;45277;52.768;18.262;2023-03-25T08:17:19;10.80;99.90
59469;DHT22;45277;52.768;18.262;2023-03-25T08:18:50;10.80;99.90
59469;DHT22;45277;52.768;18.262;2023-03-25T08:20:23;10.80;99.90
59469;DHT22;45277;52.768;18.262;2023-03-25T08:21:54;10.90;99.90
59469;DHT22;45277;52.768;18.262;2023-03-25T08:23:26;10.80;99.90
59469;DHT22;45277;52.768;18.262;2023-03-25T08:24:58;10.80;99.90
59469;DHT22;45277;52.768;18.262;2023-03-25T08:26:31;10.70;99.90
59469;DHT22;45277;52.768;18.262;2023-03-25T08:28:04;10.70;99.90
59469;DHT22;45277;52.768;18.262;2023-03-25T08:29:36;10.80;99.90
59469;DHT22;45277;52.768;18.262;2023-03-25T08:31:08;10.80;99.90
59469;DHT22;45277;52.768;18.262;2023-03-25T08:32:40;10.80;99.90
59469;DHT22;45277;52.768;18.262;2023-03-25T08:34:12;10.80;99.90
59469;DHT22;45277;52.768;18.262;2023-03-25T08:35:43;10.90;99.90
59469;DHT22;45277;52.768;18.262;2023-03-25T08:37:15;11.00;99.90
59469;DHT22;45277;52.768;18.262;2023-03-25T08:38:47;11.10;99.90
59469;DHT22;45277;52.768;18.262;2023-03-25T08:40:18;11.20;99.90
59469;DHT22;45277;52.768;18.262;2023-03-25T08:41:49;11.30;99.90
59469;DHT22;45277;52.768;18.262;2023-03-25T08:43:21;11.30;99.90
59469;DHT22;45277;52.768;18.262;2023-03-25T08:44:52;11.30;99.90
59469;DHT22;45277;52.768;18.262;2023-03-25T08:46:24;11.30;99.90
59469;DHT22;45277;52.768;18.262;2023-03-25T08:47:56;11.20;99.90
59469;DHT22;45277;52.768;18.262;2023-03-25T08:49:27;11.20;99.90
59469;DHT22;45277;52.768;18.262;2023-03-25T08:50:58;11.20;99.90
59469;DHT22;45277;52.768;18.262;2023-03-25T08:52:31;11.20;99.90
59469;DHT22;45277;52.768;18.262;2023-03-25T08:54:02;11.20;99.90
59469;DHT22;45277;52.768;18.262;2023-03-25T08:55:34;11.20;99.90
59469;DHT22;45277;52.768;18.262;2023-03-25T08:57:06;11.30;99.90
59469;DHT22;45277;52.768;18.262;2023-03-25T08:58:37;11.50;99.90
59469;DHT22;45277;52.768;18.262;2023-03-25T09:00:09;11.60;99.90
59469;DHT22;45277;52.768;18.262;2023-03-25T09:01:43;11.80;99.90
59469;DHT22;45277;52.768;18.262;2023-03-25T09:03:14;11.90;99.90
59469;DHT22;45277;52.768;18.262;2023-03-25T09:04:48;12.00;99.90
59469;DHT22;45277;52.768;18.262;2023-03-25T09:06:20;12.10;99.90
59469;DHT22;45277;52.768;18.262;2023-03-25T09:07:52;12.20;99.90
59469;DHT22;45277;52.768;18.262;2023-03-25T09:09:23;12.20;99.90
59469;DHT22;45277;52.768;18.262;2023-03-25T09:10:55;12.10;99.90
59469;DHT22;45277;52.768;18.262;2023-03-25T09:12:26;12.10;99.90
59469;DHT22;45277;52.768;18.262;2023-03-25T09:13:58;12.10;99.90
59469;DHT22;45277;52.768;18.262;2023-03-25T09:15:29;12.10;99.90
59469;DHT22;45277;52.768;18.262;2023-03-25T09:17:01;12.20;99.90
59469;DHT22;45277;52.768;18.262;2023-03-25T09:18:33;12.10;99.90
59469;DHT22;45277;52.768;18.262;2023-03-25T09:20:07;12.20;99.90
59469;DHT22;45277;52.768;18.262;2023-03-25T09:21:38;12.20;99.90
59469;DHT22;45277;52.768;18.262;2023-03-25T09:23:10;12.20;99.90
59469;DHT22;45277;52.768;18.262;2023-03-25T09:24:42;12.40;99.90
59469;DHT22;45277;52.768;18.262;2023-03-25T09:26:13;12.70;99.90
59469;DHT22;45277;52.768;18.262;2023-03-25T09:27:45;12.80;99.90
59469;DHT22;45277;52.768;18.262;2023-03-25T09:29:17;13.00;99.90
59469;DHT22;45277;52.768;18.262;2023-03-25T09:30:48;13.00;99.90
59469;DHT22;45277;52.768;18.262;2023-03-25T09:32:19;13.00;99.90
59469;DHT22;45277;52.768;18.262;2023-03-25T09:33:51;13.10;99.90
59469;DHT22;45277;52.768;18.262;2023-03-25T09:35:23;13.30;99.90
59469;DHT22;45277;52.768;18.262;2023-03-25T09:36:54;13.30;99.90
59469;DHT22;45277;52.768;18.262;2023-03-25T09:38:26;13.40;99.90
59469;DHT22;45277;52.768;18.262;2023-03-25T09:39:58;13.30;99.90
59469;DHT22;45277;52.768;18.262;2023-03-25T09:43:35;13.20;99.90
59469;DHT22;45277;52.768;18.262;2023-03-25T09:46:00;13.30;99.90
59469;DHT22;45277;52.768;18.262;2023-03-25T09:47:27;13.40;99.90
59469;DHT22;45277;52.768;18.262;2023-03-25T09:49:00;13.40;99.90
59469;DHT22;45277;52.768;18.262;2023-03-25T09:50:34;13.30;99.90
59469;DHT22;45277;52.768;18.262;2023-03-25T09:52:14;13.20;99.90
59469;DHT22;45277;52.768;18.262;2023-03-25T09:53:54;13.10;99.90
59469;DHT22;45277;52.768;18.262;2023-03-25T09:55:31;13.00;99.90
59469;DHT22;45277;52.768;18.262;2023-03-25T09:57:16;13.00;99.90
59469;DHT22;45277;52.768;18.262;2023-03-25T09:58:51;12.90;99.90
59469;DHT22;45277;52.768;18.262;2023-03-25T10:00:25;12.90;99.90
59469;DHT22;45277;52.768;18.262;2023-03-25T10:04:37;12.70;99.90
59469;DHT22;45277;52.768;18.262;2023-03-25T10:06:14;12.60;99.90
59469;DHT22;45277;52.768;18.262;2023-03-25T10:19:12;11.80;99.90
59469;DHT22;45277;52.768;18.262;2023-03-25T10:20:58;11.80;99.90
59469;DHT22;45277;52.768;18.262;2023-03-25T10:22:40;11.80;99.90
59469;DHT22;45277;52.768;18.262;2023-03-25T10:24:16;11.90;99.90
59469;DHT22;45277;52.768;18.262;2023-03-25T10:25:53;12.00;99.90
59469;DHT22;45277;52.768;18.262;2023-03-25T10:27:34;12.10;99.90
59469;DHT22;45277;52.768;18.262;2023-03-25T10:29:11;12.30;99.90
59469;DHT22;45277;52.768;18.262;2023-03-25T10:30:47;12.40;99.90
59469;DHT22;45277;52.768;18.262;2023-03-25T10:32:40;12.50;99.90
59469;DHT22;45277;52.768;18.262;2023-03-25T10:34:18;12.60;99.90
59469;DHT22;45277;52.768;18.262;2023-03-25T10:35:49;12.70;99.90
59469;DHT22;45277;52.768;18.262;2023-03-25T10:37:29;12.70;99.90
59469;DHT22;45277;52.768;18.262;2023-03-25T10:39:09;12.80;99.90
59469;DHT22;45277;52.768;18.262;2023-03-25T10:40:46;12.80;99.90
59469;DHT22;45277;52.768;18.262;2023-03-25T10:43:52;12.60;99.90
59469;DHT22;45277;52.768;18.262;2023-03-25T10:45:24;12.60;99.90
59469;DHT22;45277;52.768;18.262;2023-03-25T10:47:01;12.50;99.90